createdAt,value
2022-08-14T00:01:23.991Z,18.08
2022-08-14T00:04:34.249Z,18.00
2022-08-14T00:07:15.554Z,18.90
2022-08-14T00:10:49.161Z,18.02
2022-08-14T00:13:07.126Z,18.00
2022-08-14T00:15:53.424Z,18.33
2022-08-14T00:19:06.967Z,19.20
2022-08-14T00:21:47.229Z,18.48
2022-08-14T00:24:32.027Z,19.05
2022-08-14T00:27:19.956Z,18.98
2022-08-14T00:30:08.140Z,19.55
2022-08-14T00:32:56.766Z,19.30
2022-08-14T00:36:33.742Z,18.60
2022-08-14T00:38:46.206Z,18.83
2022-08-14T00:41:31.972Z,19.10
2022-08-14T00:44:21.347Z,19.55
2022-08-14T00:47:18.815Z,19.05
2022-08-14T00:50:08.108Z,18.90
2022-08-14T00:53:03.537Z,19.75
2022-08-14T00:55:50.504Z,21.60
2022-08-14T00:58:44.939Z,20.55
2022-08-14T01:01:33.050Z,20.80
2022-08-14T01:04:37.869Z,20.95
2022-08-14T01:07:27.328Z,20.67
2022-08-14T01:10:12.322Z,20.55
2022-08-14T01:12:58.086Z,19.95
2022-08-14T01:15:57.696Z,20.83
2022-08-14T01:19:06.172Z,20.90
2022-08-14T01:21:53.822Z,20.85
2022-08-14T01:24:38.896Z,20.75
2022-08-14T01:27:24.638Z,20.27
2022-08-14T01:30:10.444Z,19.95
2022-08-14T01:32:55.454Z,20.20
2022-08-14T01:36:03.792Z,19.38
2022-08-14T01:38:50.649Z,19.77
2022-08-14T01:41:36.774Z,20.35
2022-08-14T01:44:32.241Z,19.92
2022-08-14T01:47:22.219Z,20.08
2022-08-14T01:50:09.058Z,20.35
2022-08-14T01:52:59.277Z,21.48
2022-08-14T01:55:45.251Z,21.80
2022-08-14T01:58:30.835Z,20.15
2022-08-14T02:01:18.357Z,21.05
2022-08-14T02:04:04.780Z,21.08
2022-08-14T02:07:06.846Z,20.75
2022-08-14T02:10:06.491Z,20.67
2022-08-14T02:12:57.103Z,20.88
2022-08-14T02:15:43.565Z,21.00
2022-08-14T02:18:32.671Z,20.40
2022-08-14T02:21:23.217Z,20.60
2022-08-14T02:24:38.245Z,20.85
2022-08-14T02:28:23.505Z,21.23
2022-08-14T02:30:19.105Z,20.42
2022-08-14T02:33:05.017Z,21.70
2022-08-14T02:35:53.505Z,20.63
2022-08-14T02:38:45.389Z,20.10
2022-08-14T02:41:36.785Z,21.23
2022-08-14T02:44:29.686Z,20.75
2022-08-14T02:47:19.141Z,21.60
2022-08-14T02:50:06.459Z,20.55
2022-08-14T02:52:56.264Z,19.73
2022-08-14T02:55:47.816Z,22.23
2022-08-14T02:58:37.423Z,20.23
2022-08-14T03:01:31.469Z,20.90
2022-08-14T03:04:29.936Z,19.88
2022-08-14T03:07:17.051Z,21.30
2022-08-14T03:10:25.743Z,21.08
2022-08-14T03:13:07.516Z,21.27
2022-08-14T03:16:09.234Z,21.08
2022-08-14T03:19:08.178Z,21.50
2022-08-14T03:21:57.033Z,23.38
2022-08-14T03:24:42.156Z,22.65
2022-08-14T03:27:35.461Z,21.95
2022-08-14T03:30:39.428Z,22.88
2022-08-14T03:33:27.056Z,22.50
2022-08-14T03:37:39.494Z,22.48
2022-08-14T03:39:22.993Z,22.10
2022-08-14T03:42:18.877Z,21.92
2022-08-14T03:45:19.530Z,22.45
2022-08-14T03:48:26.713Z,21.52
2022-08-14T03:51:15.484Z,21.58
2022-08-14T03:54:03.965Z,21.17
2022-08-14T03:56:50.279Z,21.77
2022-08-14T03:59:36.425Z,20.98
2022-08-14T04:02:32.600Z,20.25
2022-08-14T04:05:22.177Z,21.23
2022-08-14T04:08:28.988Z,19.15
2022-08-14T04:11:14.806Z,19.15
2022-08-14T04:14:00.679Z,17.77
2022-08-14T04:16:47.140Z,19.10
2022-08-14T04:19:33.014Z,18.95
2022-08-14T04:22:21.875Z,18.70
2022-08-14T04:25:07.853Z,19.58
2022-08-14T04:28:02.510Z,18.80
2022-08-14T04:30:48.398Z,18.90
2022-08-14T04:33:34.057Z,18.63
2022-08-14T04:36:19.937Z,17.95
2022-08-14T04:39:27.286Z,17.45
2022-08-14T04:42:32.106Z,19.42
2022-08-14T04:45:17.404Z,16.92
2022-08-14T04:48:38.834Z,18.08
2022-08-14T04:51:27.335Z,15.98
2022-08-14T04:54:12.242Z,16.83
2022-08-14T04:56:58.329Z,18.10
2022-08-14T04:59:43.804Z,17.38
2022-08-14T05:02:29.194Z,14.57
2022-08-14T05:05:17.050Z,15.27
2022-08-14T05:08:11.755Z,15.75
2022-08-14T05:11:18.857Z,15.13
2022-08-14T05:14:17.257Z,14.55
2022-08-14T05:17:13.139Z,15.85
2022-08-14T05:21:54.325Z,14.85
2022-08-14T05:23:03.543Z,14.45
2022-08-14T05:25:51.342Z,14.45
2022-08-14T05:28:38.554Z,14.38
2022-08-14T05:31:23.618Z,14.55
2022-08-14T05:34:31.951Z,14.52
2022-08-14T05:37:17.201Z,14.20
2022-08-14T05:40:02.691Z,14.18
2022-08-14T05:42:52.832Z,14.73
2022-08-14T05:45:39.119Z,14.18
2022-08-14T05:48:33.568Z,13.27
2022-08-14T05:51:25.250Z,13.07
2022-08-14T05:54:26.608Z,13.85
2022-08-14T05:57:12.413Z,13.27
2022-08-14T05:59:57.230Z,12.63
2022-08-14T06:02:45.695Z,12.48
2022-08-14T06:05:30.898Z,13.18
2022-08-14T06:08:22.009Z,12.70
2022-08-14T06:11:30.624Z,12.82
2022-08-14T06:14:21.935Z,12.15
2022-08-14T06:17:08.977Z,11.70
2022-08-14T06:19:54.131Z,12.52
2022-08-14T06:22:42.503Z,12.85
2022-08-14T06:25:30.965Z,12.10
2022-08-14T06:28:27.526Z,13.60
2022-08-14T06:31:13.497Z,12.70
2022-08-14T06:35:04.623Z,13.10
2022-08-14T06:37:04.382Z,13.85
2022-08-14T06:39:49.767Z,12.65
2022-08-14T06:42:34.663Z,12.43
2022-08-14T06:45:20.931Z,13.07
2022-08-14T06:51:03.069Z,11.63
2022-08-14T06:53:48.538Z,11.60
2022-08-14T06:56:33.201Z,11.65
2022-08-14T06:59:19.127Z,11.68
2022-08-14T07:02:23.602Z,12.00
2022-08-14T07:05:32.478Z,11.48
2022-08-14T07:08:21.620Z,10.43
2022-08-14T07:11:11.650Z,10.68
2022-08-14T07:13:57.005Z,10.27
2022-08-14T07:16:41.706Z,9.88
2022-08-14T07:19:27.408Z,9.88
2022-08-14T07:22:20.282Z,9.90
2022-08-14T07:25:05.960Z,10.52
2022-08-14T07:27:51.079Z,9.60
2022-08-14T07:30:36.536Z,10.05
2022-08-14T07:33:30.160Z,9.48
2022-08-14T07:36:26.499Z,10.27
2022-08-14T07:39:15.079Z,10.05
2022-08-14T07:42:00.034Z,10.00
2022-08-14T07:44:50.342Z,9.45
2022-08-14T07:47:40.903Z,9.75
2022-08-14T07:50:26.825Z,10.27
2022-08-14T07:53:21.062Z,10.27
2022-08-14T07:56:21.505Z,9.52
2022-08-14T07:59:09.060Z,9.27
2022-08-14T08:01:58.552Z,9.63
2022-08-14T08:04:46.401Z,9.27
2022-08-14T08:07:35.449Z,9.57
2022-08-14T08:11:01.612Z,8.85
2022-08-14T08:13:41.064Z,9.40
2022-08-14T08:16:36.020Z,9.57
2022-08-14T08:19:21.384Z,9.35
2022-08-14T08:22:06.448Z,9.38
2022-08-14T08:24:51.536Z,9.63
2022-08-14T08:27:36.562Z,9.52
2022-08-14T08:30:31.837Z,8.82
2022-08-14T08:33:18.805Z,9.50
2022-08-14T08:36:07.975Z,9.05
2022-08-14T08:39:17.743Z,9.70
2022-08-14T08:42:04.815Z,9.00
2022-08-14T08:44:54.655Z,9.23
2022-08-14T08:47:40.555Z,9.20
2022-08-14T08:53:17.130Z,9.13
2022-08-14T08:56:03.413Z,9.20
2022-08-14T08:58:50.262Z,9.20
2022-08-14T09:01:36.455Z,9.07
2022-08-14T09:04:21.585Z,8.48
2022-08-14T09:07:10.796Z,8.75
2022-08-14T09:12:51.490Z,8.55
2022-08-14T09:15:42.764Z,8.65
2022-08-14T09:18:28.583Z,8.75
2022-08-14T09:21:13.615Z,8.13
2022-08-14T09:24:27.985Z,8.18
2022-08-14T09:27:06.980Z,8.05
2022-08-14T09:29:53.984Z,8.57
2022-08-14T09:33:00.303Z,8.20
2022-08-14T09:36:13.614Z,7.95
2022-08-14T09:39:23.309Z,9.07
2022-08-14T09:42:50.181Z,8.85
2022-08-14T09:45:53.298Z,8.50
2022-08-14T09:48:39.341Z,8.25
2022-08-14T09:51:32.947Z,8.07
2022-08-14T09:54:37.847Z,9.10
2022-08-14T09:57:29.713Z,8.55
2022-08-14T10:00:30.167Z,8.10
2022-08-14T10:03:34.737Z,8.80
2022-08-14T10:06:28.322Z,7.88
2022-08-14T10:09:16.789Z,7.95
2022-08-14T10:12:04.579Z,8.07
2022-08-14T10:14:53.402Z,7.65
2022-08-14T10:17:39.762Z,7.90
2022-08-14T10:20:39.546Z,7.82
2022-08-14T10:23:42.220Z,7.53
2022-08-14T10:26:28.426Z,7.30
2022-08-14T10:29:19.532Z,7.30
2022-08-14T10:32:18.154Z,7.80
2022-08-14T10:35:13.472Z,7.38
2022-08-14T10:38:00.206Z,7.45
2022-08-14T10:40:52.277Z,7.55
2022-08-14T10:43:45.278Z,7.60
2022-08-14T10:47:38.960Z,6.47
2022-08-14T10:50:15.012Z,6.38
2022-08-14T10:53:03.319Z,6.70
2022-08-14T10:55:58.480Z,6.80
2022-08-14T10:58:43.253Z,7.05
2022-08-14T11:01:40.930Z,7.07
2022-08-14T11:04:27.922Z,6.78
2022-08-14T11:07:19.243Z,6.70
2022-08-14T11:10:12.174Z,6.57
2022-08-14T11:12:57.298Z,6.95
2022-08-14T11:15:45.584Z,7.10
2022-08-14T11:18:40.080Z,6.75
2022-08-14T11:21:30.270Z,6.95
2022-08-14T11:24:53.892Z,6.97
2022-08-14T11:27:33.432Z,6.80
2022-08-14T11:30:49.978Z,6.85
2022-08-14T11:33:32.536Z,7.28
2022-08-14T11:36:21.910Z,7.18
2022-08-14T11:39:09.776Z,7.38
2022-08-14T11:41:57.113Z,6.53
2022-08-14T11:44:46.336Z,7.07
2022-08-14T11:47:34.737Z,7.20
2022-08-14T11:50:34.134Z,7.53
2022-08-14T11:53:28.096Z,7.85
2022-08-14T11:56:17.518Z,9.23
2022-08-14T11:59:02.596Z,9.48
2022-08-14T12:01:49.065Z,8.13
2022-08-14T12:04:35.000Z,7.50
2022-08-14T12:07:21.462Z,8.40
2022-08-14T12:10:42.361Z,8.93
2022-08-14T12:13:18.457Z,8.40
2022-08-14T12:16:15.183Z,8.50
2022-08-14T12:19:05.817Z,8.18
2022-08-14T12:21:54.345Z,7.00
2022-08-14T12:24:43.308Z,7.53
2022-08-14T12:27:52.818Z,7.05
2022-08-14T12:30:43.413Z,7.15
2022-08-14T12:36:20.902Z,7.93
2022-08-14T12:39:21.183Z,7.65
2022-08-14T12:42:06.382Z,6.88
2022-08-14T12:44:51.279Z,7.45
2022-08-14T12:47:37.386Z,7.57
2022-08-14T12:50:22.393Z,8.05
2022-08-14T12:53:14.732Z,7.57
2022-08-14T12:56:21.715Z,7.93
2022-08-14T12:59:08.808Z,8.25
2022-08-14T13:01:58.982Z,8.65
2022-08-14T13:04:48.432Z,8.40
2022-08-14T13:07:33.319Z,8.82
2022-08-14T13:10:47.218Z,8.80
2022-08-14T13:13:32.788Z,9.82
2022-08-14T13:16:20.454Z,9.70
2022-08-14T13:19:19.860Z,10.38
2022-08-14T13:22:10.153Z,10.48
2022-08-14T13:25:05.650Z,10.95
2022-08-14T13:28:00.124Z,10.18
2022-08-14T13:30:45.729Z,8.90
2022-08-14T13:33:32.414Z,8.10
2022-08-14T13:36:24.230Z,7.90
2022-08-14T13:39:10.442Z,7.72
2022-08-14T13:42:00.733Z,8.35
2022-08-14T13:44:46.065Z,9.52
2022-08-14T13:47:32.393Z,9.50
2022-08-14T13:50:20.457Z,9.02
2022-08-14T13:53:09.298Z,9.48
2022-08-14T13:55:56.147Z,9.05
2022-08-14T13:58:47.113Z,8.48
2022-08-14T14:01:42.756Z,8.73
2022-08-14T14:04:30.616Z,9.70
2022-08-14T14:07:19.942Z,9.70
2022-08-14T14:10:09.034Z,8.98
2022-08-14T14:12:53.937Z,8.20
2022-08-14T14:15:57.848Z,8.15
2022-08-14T14:18:51.996Z,8.75
2022-08-14T14:21:40.977Z,8.27
2022-08-14T14:30:51.747Z,8.73
2022-08-14T14:33:49.696Z,8.23
2022-08-14T14:36:36.539Z,8.40
2022-08-14T14:39:27.592Z,8.75
2022-08-14T14:42:18.361Z,9.27
2022-08-14T14:45:22.842Z,8.38
2022-08-14T14:48:09.360Z,8.63
2022-08-14T14:51:00.747Z,8.65
2022-08-14T14:53:46.254Z,9.23
2022-08-14T14:56:50.580Z,9.70
2022-08-14T14:59:37.054Z,8.90
2022-08-14T15:02:37.610Z,9.15
2022-08-14T15:05:23.576Z,8.57
2022-08-14T15:08:16.923Z,9.05
2022-08-14T15:11:13.679Z,8.85
2022-08-14T15:14:00.107Z,8.73
2022-08-14T15:16:46.509Z,8.43
2022-08-14T15:19:31.874Z,9.00
2022-08-14T15:22:17.464Z,9.00
2022-08-14T15:25:02.982Z,8.65
2022-08-14T15:27:50.569Z,9.05
2022-08-14T15:30:45.429Z,9.02
2022-08-14T15:34:33.321Z,8.35
2022-08-14T15:36:59.838Z,8.43
2022-08-14T15:39:44.643Z,8.98
2022-08-14T15:42:32.116Z,8.95
2022-08-14T15:45:17.241Z,8.75
2022-08-14T15:48:02.332Z,9.02
2022-08-14T15:50:50.715Z,8.80
2022-08-14T15:53:36.522Z,8.73
2022-08-14T15:56:43.112Z,8.93
2022-08-14T15:59:47.700Z,8.82
2022-08-14T16:02:34.869Z,8.57
2022-08-14T16:05:24.573Z,9.13
2022-08-14T16:08:26.550Z,8.73
2022-08-14T16:11:14.594Z,8.80
2022-08-14T16:14:00.998Z,10.13
2022-08-14T16:16:50.522Z,9.45
2022-08-14T16:19:47.082Z,8.80
2022-08-14T16:23:00.224Z,8.43
2022-08-14T16:25:43.598Z,8.40
2022-08-14T16:28:33.116Z,9.07
2022-08-14T16:31:20.527Z,8.88
2022-08-14T16:34:44.188Z,9.48
2022-08-14T16:37:18.457Z,8.80
2022-08-14T16:40:04.169Z,8.93
2022-08-14T16:43:04.791Z,9.15
2022-08-14T16:45:57.521Z,9.80
2022-08-14T16:48:57.883Z,9.30
2022-08-14T16:51:44.174Z,8.70
2022-08-14T16:54:35.043Z,9.35
2022-08-14T16:57:32.368Z,9.13
2022-08-14T17:00:44.021Z,9.30
2022-08-14T17:03:30.437Z,8.85
2022-08-14T17:06:45.741Z,8.93
2022-08-14T17:09:47.990Z,10.18
2022-08-14T17:15:20.011Z,9.43
2022-08-14T17:18:05.554Z,9.40
2022-08-14T17:21:00.256Z,9.68
2022-08-14T17:23:57.149Z,9.35
2022-08-14T17:26:50.218Z,9.75
2022-08-14T17:29:56.138Z,9.60
2022-08-14T17:32:57.094Z,10.30
2022-08-14T17:35:58.480Z,9.80
2022-08-14T17:39:06.714Z,10.05
2022-08-14T17:42:01.813Z,9.60
2022-08-14T17:44:48.252Z,9.23
2022-08-14T17:47:34.038Z,9.75
2022-08-14T17:50:59.742Z,9.02
2022-08-14T17:53:53.600Z,9.27
2022-08-14T17:56:49.063Z,9.57
2022-08-14T17:59:39.548Z,9.57
2022-08-14T18:02:31.057Z,9.90
2022-08-14T18:05:17.193Z,10.13
2022-08-14T18:08:31.982Z,10.15
2022-08-14T18:11:21.358Z,10.27
2022-08-14T18:14:09.284Z,9.55
2022-08-14T18:17:15.922Z,10.10
2022-08-14T18:21:24.099Z,9.75
2022-08-14T18:23:10.600Z,10.07
2022-08-14T18:25:59.312Z,10.00
2022-08-14T18:28:51.619Z,9.57
2022-08-14T18:31:42.362Z,9.52
2022-08-14T18:34:37.686Z,10.38
2022-08-14T18:37:23.030Z,9.35
2022-08-14T18:40:17.862Z,9.80
2022-08-14T18:43:03.909Z,9.60
2022-08-14T18:46:06.879Z,9.90
2022-08-14T18:49:15.755Z,10.07
2022-08-14T18:52:18.550Z,9.45
2022-08-14T18:55:22.769Z,9.80
2022-08-14T18:58:26.631Z,9.50
2022-08-14T19:01:25.585Z,9.65
2022-08-14T19:04:36.971Z,10.05
2022-08-14T19:07:23.201Z,9.95
2022-08-14T19:10:10.118Z,9.75
2022-08-14T19:13:04.889Z,9.73
2022-08-14T19:16:03.692Z,9.65
2022-08-14T19:18:51.398Z,9.80
2022-08-14T19:21:42.119Z,9.73
2022-08-14T19:24:34.100Z,9.50
2022-08-14T19:27:26.082Z,9.75
2022-08-14T19:30:19.617Z,9.05
2022-08-14T19:33:59.910Z,9.65
2022-08-14T19:37:05.041Z,9.05
2022-08-14T19:39:54.167Z,10.07
2022-08-14T19:42:46.812Z,10.20
2022-08-14T19:45:33.759Z,9.68
2022-08-14T19:48:19.371Z,8.68
2022-08-14T19:51:05.416Z,9.48
2022-08-14T19:54:06.143Z,8.43
2022-08-14T19:56:59.029Z,9.10
2022-08-14T19:59:58.082Z,8.85
2022-08-14T20:02:49.595Z,8.73
2022-08-14T20:05:46.124Z,8.38
2022-08-14T20:11:07.164Z,8.05
2022-08-14T20:12:00.455Z,8.05
2022-08-14T20:14:51.720Z,8.25
2022-08-14T20:17:40.553Z,9.07
2022-08-14T20:20:31.645Z,8.43
2022-08-14T20:23:18.272Z,8.82
2022-08-14T20:26:03.697Z,8.25
2022-08-14T20:28:55.502Z,8.50
2022-08-14T20:31:40.381Z,8.60
2022-08-14T20:34:39.973Z,8.10
2022-08-14T20:37:37.028Z,8.45
2022-08-14T20:40:24.176Z,8.73
2022-08-14T20:43:45.703Z,8.40
2022-08-14T20:46:38.610Z,8.27
2022-08-14T20:49:29.644Z,8.35
2022-08-14T20:55:24.628Z,8.68
2022-08-14T20:58:38.554Z,8.07
2022-08-14T21:01:33.429Z,7.88
2022-08-14T21:04:34.141Z,8.75
2022-08-14T21:07:26.163Z,8.32
2022-08-14T21:10:35.992Z,8.50
2022-08-14T21:14:26.277Z,8.82
2022-08-14T21:16:58.602Z,7.68
2022-08-14T21:19:44.772Z,7.85
2022-08-14T21:22:36.510Z,8.35
2022-08-14T21:25:21.464Z,8.82
2022-08-14T21:28:30.108Z,8.45
2022-08-14T21:31:16.182Z,8.43
2022-08-14T21:34:01.847Z,9.00
2022-08-14T21:36:53.951Z,8.13
2022-08-14T21:39:39.337Z,8.85
2022-08-14T21:42:27.978Z,8.98
2022-08-14T21:45:13.647Z,8.45
2022-08-14T21:47:58.707Z,8.70
2022-08-14T21:51:01.480Z,9.07
2022-08-14T21:53:58.791Z,8.65
2022-08-14T21:56:57.425Z,9.15
2022-08-14T21:59:43.242Z,9.50
2022-08-14T22:02:32.482Z,8.95
2022-08-14T22:05:19.361Z,9.07
2022-08-14T22:08:05.983Z,9.27
2022-08-14T22:10:52.038Z,9.27
2022-08-14T22:13:46.430Z,8.95
2022-08-14T22:17:03.270Z,8.93
2022-08-14T22:19:54.395Z,9.50
2022-08-14T22:22:41.509Z,9.05
2022-08-14T22:25:33.152Z,9.35
2022-08-14T22:28:27.436Z,9.52
2022-08-14T22:31:23.130Z,9.55
2022-08-14T22:34:10.279Z,9.45
2022-08-14T22:36:55.048Z,9.35
2022-08-14T22:40:48.356Z,10.07
2022-08-14T22:43:00.074Z,9.98
2022-08-14T22:45:55.086Z,9.35
2022-08-14T22:48:40.865Z,9.38
2022-08-14T22:51:27.636Z,9.57
2022-08-14T22:54:52.157Z,9.40
2022-08-14T22:57:18.834Z,9.65
2022-08-14T23:00:14.767Z,9.75
2022-08-14T23:03:09.004Z,9.90
2022-08-14T23:07:03.481Z,9.85
2022-08-14T23:09:35.959Z,9.68
2022-08-14T23:12:28.020Z,10.75
2022-08-14T23:15:16.410Z,10.15
2022-08-14T23:18:04.560Z,10.27
2022-08-14T23:20:52.851Z,10.43
2022-08-14T23:23:38.482Z,10.52
2022-08-14T23:26:49.540Z,10.13
2022-08-14T23:29:33.502Z,10.23
2022-08-14T23:32:19.110Z,10.82
2022-08-14T23:35:05.198Z,10.68
2022-08-14T23:37:52.541Z,10.88
2022-08-14T23:40:38.534Z,10.90
2022-08-14T23:43:24.127Z,11.38
2022-08-14T23:46:12.871Z,11.35
2022-08-14T23:48:58.181Z,11.15
2022-08-14T23:51:43.051Z,11.23
2022-08-14T23:54:48.715Z,11.52
2022-08-14T23:57:43.534Z,11.57
